Time;durP1;ratioP1;P1;durP2;ratioP2;P2;SDS_P1;SDS_P2;PMS_P1;PMS_P2;Temp;Humidity;BMP_temperature;BMP_pressure;BME280_temperature;BME280_humidity;BME280_pressure;Samples;Min_cycle;Max_cycle;Signal;HPM_P1;HPM_P2
2021/08/12 00:01:48;;;;;;;1.83;1.73;;;26.00;53.30;;;;;;5039168;28;20116;-44
2021/08/12 00:04:18;;;;;;;1.48;1.10;;;26.00;53.10;;;;;;5044073;28;20044;-46
2021/08/12 00:06:45;;;;;;;4.70;1.77;;;26.00;53.10;;;;;;5042774;28;20124;-50
2021/08/12 00:09:12;;;;;;;4.78;2.17;;;26.10;53.00;;;;;;5038236;28;20045;-49
2021/08/12 00:11:39;;;;;;;2.75;1.80;;;26.10;53.00;;;;;;5041523;28;20519;-48
2021/08/12 00:14:06;;;;;;;9.18;2.65;;;26.10;52.90;;;;;;5039869;28;20078;-50
2021/08/12 00:16:33;;;;;;;1.63;1.58;;;26.10;52.90;;;;;;5039622;28;20429;-49
2021/08/12 00:19:02;;;;;;;2.90;2.58;;;26.10;52.90;;;;;;5033741;28;20041;-50
2021/08/12 00:21:29;;;;;;;3.03;2.72;;;26.10;52.90;;;;;;5037919;28;20037;-47
2021/08/12 00:23:57;;;;;;;3.75;2.13;;;26.10;52.90;;;;;;5043312;28;20049;-48
2021/08/12 00:26:24;;;;;;;2.92;1.73;;;26.10;52.90;;;;;;5049668;28;20400;-48
2021/08/12 00:28:51;;;;;;;3.40;1.73;;;26.10;52.80;;;;;;5033034;28;20049;-49
2021/08/12 00:31:18;;;;;;;1.92;1.65;;;26.10;52.90;;;;;;5036666;28;20152;-52
2021/08/12 00:33:45;;;;;;;1.77;1.67;;;26.10;52.80;;;;;;5033128;28;20048;-53
2021/08/12 00:36:13;;;;;;;4.75;1.90;;;26.10;52.80;;;;;;5042122;28;20049;-49
2021/08/12 00:38:42;;;;;;;1.42;1.30;;;26.10;52.80;;;;;;5044741;28;20519;-51
2021/08/12 00:41:11;;;;;;;3.97;1.30;;;26.10;52.80;;;;;;5046708;28;20106;-50
2021/08/12 00:43:38;;;;;;;2.35;0.93;;;26.10;52.80;;;;;;5042606;28;20098;-49
2021/08/12 00:46:07;;;;;;;2.45;1.30;;;26.10;52.80;;;;;;5031783;28;20042;-51
2021/08/12 00:48:34;;;;;;;1.70;1.02;;;26.10;52.80;;;;;;5052479;28;20128;-45
2021/08/12 00:51:03;;;;;;;2.58;1.15;;;26.10;52.80;;;;;;5039366;28;20038;-49
2021/08/12 00:53:33;;;;;;;1.58;1.33;;;26.10;52.80;;;;;;5035681;28;20047;-45
2021/08/12 00:56:02;;;;;;;1.42;1.38;;;26.10;52.80;;;;;;5036827;28;20068;-52
2021/08/12 00:58:34;;;;;;;2.35;1.05;;;26.10;52.80;;;;;;5045251;28;20633;-47
2021/08/12 01:01:01;;;;;;;2.22;1.52;;;26.10;52.80;;;;;;5039820;28;20049;-51
2021/08/12 01:03:28;;;;;;;3.08;2.35;;;26.00;52.80;;;;;;5036182;28;20045;-48
2021/08/12 01:05:56;;;;;;;1.85;1.48;;;26.00;52.80;;;;;;5038712;28;20707;-48
2021/08/12 01:08:38;;;;;;;1.35;1.25;;;26.00;52.80;;;;;;5046657;28;20053;-48
2021/08/12 01:11:14;;;;;;;4.43;1.80;;;26.00;52.80;;;;;;5044998;28;20103;-50
2021/08/12 01:13:54;;;;;;;5.00;1.58;;;26.00;52.90;;;;;;5058500;28;20574;-50
2021/08/12 01:16:26;;;;;;;5.78;1.42;;;26.00;52.90;;;;;;5029644;28;20046;-46
2021/08/12 01:18:59;;;;;;;2.25;0.80;;;26.00;53.00;;;;;;5058845;28;20049;-48
2021/08/12 01:21:53;;;;;;;3.05;1.92;;;26.00;53.10;;;;;;5052086;28;20073;-51
2021/08/12 01:24:22;;;;;;;2.00;0.88;;;26.00;53.00;;;;;;5055721;28;20136;-50
2021/08/12 01:26:55;;;;;;;3.15;1.15;;;25.90;53.10;;;;;;5043934;28;20065;-44
2021/08/12 01:29:38;;;;;;;1.65;1.20;;;25.90;53.20;;;;;;5032762;28;20140;-48
2021/08/12 01:32:10;;;;;;;4.30;1.17;;;25.90;53.30;;;;;;5038665;28;20029;-48
2021/08/12 01:34:55;;;;;;;4.63;1.88;;;25.90;53.40;;;;;;5031350;28;20049;-49
2021/08/12 01:37:25;;;;;;;2.83;1.55;;;25.90;53.30;;;;;;5048781;28;20268;-47
2021/08/12 01:39:54;;;;;;;1.70;1.45;;;25.80;53.40;;;;;;5045075;28;20033;-51
2021/08/12 01:42:26;;;;;;;1.80;1.70;;;25.80;53.40;;;;;;5051460;28;20052;-47
2021/08/12 01:44:55;;;;;;;2.17;1.58;;;25.80;53.40;;;;;;5043685;28;20045;-49
2021/08/12 01:47:27;;;;;;;1.48;1.10;;;25.80;54.00;;;;;;5033558;28;20077;-50
2021/08/12 01:49:56;;;;;;;3.05;0.88;;;25.80;53.50;;;;;;5041769;28;20811;-47
2021/08/12 01:52:28;;;;;;;2.58;1.60;;;25.70;53.50;;;;;;5016257;28;20053;-47
2021/08/12 01:54:56;;;;;;;1.15;1.13;;;25.70;53.50;;;;;;5035702;28;20038;-47
2021/08/12 01:57:24;;;;;;;3.20;1.63;;;25.70;53.50;;;;;;5033749;28;20501;-50
2021/08/12 01:59:54;;;;;;;1.90;1.45;;;25.70;53.60;;;;;;5039517;28;20048;-50
2021/08/12 02:02:22;;;;;;;5.13;1.20;;;25.70;53.60;;;;;;5059497;28;20135;-48
2021/08/12 02:04:52;;;;;;;1.92;1.63;;;25.70;53.60;;;;;;5029939;28;20120;-46
2021/08/12 02:07:20;;;;;;;2.20;1.33;;;25.60;53.60;;;;;;5032914;28;20111;-48
2021/08/12 02:09:47;;;;;;;1.10;1.10;;;25.60;53.70;;;;;;5031424;28;20774;-45
2021/08/12 02:12:14;;;;;;;1.63;1.52;;;25.60;53.60;;;;;;5050620;28;20041;-47
2021/08/12 02:14:41;;;;;;;3.65;1.42;;;25.60;53.70;;;;;;5032202;28;20049;-49
2021/08/12 02:17:10;;;;;;;1.20;1.20;;;25.60;53.70;;;;;;5061004;28;20075;-47
2021/08/12 02:19:38;;;;;;;1.83;1.70;;;25.60;53.80;;;;;;5029945;28;20479;-48
2021/08/12 02:22:13;;;;;;;1.05;1.00;;;25.50;53.80;;;;;;5046665;28;20041;-49
2021/08/12 02:24:48;;;;;;;1.85;1.15;;;25.50;53.80;;;;;;5032452;28;20669;-48
2021/08/12 02:27:20;;;;;;;1.13;1.13;;;25.50;53.90;;;;;;5040806;28;20659;-45
2021/08/12 02:29:49;;;;;;;3.80;1.75;;;25.50;54.00;;;;;;5031022;28;20048;-50
2021/08/12 02:32:19;;;;;;;1.70;1.10;;;25.40;53.90;;;;;;5043989;28;20127;-53
2021/08/12 02:34:49;;;;;;;1.08;0.73;;;25.40;54.00;;;;;;5027480;28;20050;-47
2021/08/12 02:37:18;;;;;;;1.40;1.30;;;25.40;54.10;;;;;;5029989;28;20412;-49
2021/08/12 02:39:49;;;;;;;2.95;1.85;;;25.40;54.10;;;;;;5047088;28;20038;-48
2021/08/12 02:42:16;;;;;;;2.45;1.45;;;25.40;54.20;;;;;;5034844;28;20037;-50
2021/08/12 02:44:44;;;;;;;3.17;1.13;;;25.40;54.20;;;;;;5050839;28;20033;-47
2021/08/12 02:47:15;;;;;;;1.25;1.10;;;25.30;54.20;;;;;;5030651;28;20060;-50
2021/08/12 02:49:46;;;;;;;1.35;1.10;;;25.30;54.20;;;;;;5040495;28;20045;-48
2021/08/12 02:52:15;;;;;;;3.28;1.52;;;25.30;54.30;;;;;;5029896;28;20049;-47
2021/08/12 02:54:45;;;;;;;11.45;1.25;;;25.30;54.30;;;;;;5044276;28;20049;-46
2021/08/12 02:57:14;;;;;;;2.38;1.48;;;25.30;54.30;;;;;;5033253;28;20045;-46
2021/08/12 02:59:43;;;;;;;3.13;1.35;;;25.30;54.40;;;;;;5034838;28;20053;-48
2021/08/12 03:02:11;;;;;;;5.25;0.93;;;25.20;54.30;;;;;;5044849;28;21043;-47
2021/08/12 03:04:38;;;;;;;1.35;1.25;;;25.30;54.30;;;;;;5028617;28;20053;-49
2021/08/12 03:07:08;;;;;;;1.10;0.98;;;25.20;54.30;;;;;;5034257;28;20045;-52
2021/08/12 03:09:36;;;;;;;2.42;1.40;;;25.20;54.30;;;;;;5030936;28;20543;-51
2021/08/12 03:12:05;;;;;;;2.58;1.20;;;25.20;54.30;;;;;;5030797;28;20071;-51
2021/08/12 03:14:36;;;;;;;1.85;1.20;;;25.20;54.40;;;;;;5029228;28;20057;-52
2021/08/12 03:17:04;;;;;;;3.10;1.33;;;25.10;54.30;;;;;;5045152;28;20041;-51
2021/08/12 03:19:31;;;;;;;0.90;0.80;;;25.10;54.30;;;;;;5054189;28;20049;-48
2021/08/12 03:22:03;;;;;;;4.50;1.23;;;25.10;54.30;;;;;;5042391;28;20140;-48
2021/08/12 03:24:34;;;;;;;3.47;1.00;;;25.10;54.40;;;;;;5036725;28;20144;-47
2021/08/12 03:27:03;;;;;;;1.88;1.08;;;25.10;54.40;;;;;;5040600;28;20045;-48
2021/08/12 03:29:30;;;;;;;2.30;1.70;;;25.10;54.40;;;;;;5032486;28;20060;-50
2021/08/12 03:31:59;;;;;;;1.67;1.55;;;25.00;54.40;;;;;;5036983;28;20045;-47
2021/08/12 03:34:26;;;;;;;1.98;0.90;;;25.00;54.40;;;;;;5028132;28;20127;-53
2021/08/12 03:36:53;;;;;;;4.68;1.42;;;25.00;54.40;;;;;;5050596;28;20045;-46
2021/08/12 03:39:21;;;;;;;3.13;1.55;;;25.00;54.40;;;;;;5035474;28;20047;-51
2021/08/12 03:41:51;;;;;;;3.17;0.95;;;25.00;54.40;;;;;;5030819;28;20111;-54
2021/08/12 03:44:18;;;;;;;5.47;1.55;;;25.00;54.40;;;;;;5036848;28;20107;-52
2021/08/12 03:46:45;;;;;;;0.88;0.75;;;24.90;55.00;;;;;;5031723;28;20134;-49
2021/08/12 03:49:13;;;;;;;12.65;0.90;;;24.90;54.40;;;;;;5036265;28;20049;-50
2021/08/12 03:51:40;;;;;;;0.90;0.70;;;24.90;54.40;;;;;;5030044;28;20504;-50
2021/08/12 03:54:07;;;;;;;3.28;1.40;;;24.90;55.00;;;;;;5030557;28;20037;-47
2021/08/12 03:56:35;;;;;;;2.45;1.15;;;24.90;54.50;;;;;;5028482;28;20037;-47
2021/08/12 03:59:03;;;;;;;1.98;0.88;;;24.90;54.40;;;;;;5040509;28;20056;-51
2021/08/12 04:01:31;;;;;;;2.15;1.25;;;24.90;54.40;;;;;;5042655;28;20128;-46
2021/08/12 04:03:59;;;;;;;2.20;0.93;;;24.90;54.40;;;;;;5028457;28;20045;-50
2021/08/12 04:06:27;;;;;;;2.85;1.20;;;24.80;54.50;;;;;;5033972;28;20156;-45
2021/08/12 04:08:54;;;;;;;1.45;1.35;;;24.80;54.50;;;;;;5043426;28;20144;-47
2021/08/12 04:11:22;;;;;;;2.90;0.75;;;24.80;54.60;;;;;;5041143;28;20489;-47
2021/08/12 04:13:49;;;;;;;0.68;0.68;;;24.80;54.60;;;;;;5025836;28;20542;-50
2021/08/12 04:16:16;;;;;;;3.05;1.13;;;24.80;54.60;;;;;;5040383;28;20037;-48
2021/08/12 04:18:43;;;;;;;4.65;1.77;;;24.80;54.70;;;;;;5041453;28;20052;-48
2021/08/12 04:21:10;;;;;;;4.00;0.75;;;24.70;54.60;;;;;;5036303;28;20120;-48
2021/08/12 04:23:39;;;;;;;2.92;1.48;;;24.70;54.60;;;;;;5037810;28;20147;-53
2021/08/12 04:26:06;;;;;;;2.65;2.13;;;24.70;54.60;;;;;;5034255;28;20041;-45
2021/08/12 04:28:33;;;;;;;1.48;1.38;;;24.70;54.70;;;;;;5040963;28;20136;-50
2021/08/12 04:31:00;;;;;;;4.72;1.90;;;24.70;54.70;;;;;;5043708;28;20048;-47
2021/08/12 04:33:29;;;;;;;7.97;0.98;;;24.70;54.70;;;;;;5043782;28;20049;-47
2021/08/12 04:35:57;;;;;;;4.13;1.33;;;24.70;54.70;;;;;;5028840;28;20467;-49
2021/08/12 04:38:25;;;;;;;1.33;0.85;;;24.70;54.80;;;;;;5046654;28;20068;-46
2021/08/12 04:40:54;;;;;;;4.72;0.98;;;24.60;54.80;;;;;;5025852;28;20043;-46
2021/08/12 04:43:21;;;;;;;1.67;1.02;;;24.60;54.80;;;;;;5042224;28;20072;-47
2021/08/12 04:45:48;;;;;;;3.85;1.65;;;24.60;54.80;;;;;;5033439;28;20549;-49
2021/08/12 04:48:15;;;;;;;4.32;1.52;;;24.60;54.80;;;;;;5029604;28;20083;-50
2021/08/12 04:50:43;;;;;;;3.72;0.88;;;24.60;54.80;;;;;;5042938;28;20359;-50
2021/08/12 04:53:10;;;;;;;2.47;1.40;;;24.50;55.40;;;;;;5030898;28;20045;-50
2021/08/12 04:55:37;;;;;;;2.10;1.63;;;24.50;54.90;;;;;;5032330;28;20519;-48
2021/08/12 04:58:06;;;;;;;2.70;0.80;;;24.50;55.00;;;;;;5050151;28;20037;-49
2021/08/12 05:00:33;;;;;;;2.38;0.68;;;24.50;55.10;;;;;;5038018;28;20091;-50
2021/08/12 05:03:00;;;;;;;6.07;1.38;;;24.50;55.30;;;;;;5055418;28;20049;-51
2021/08/12 05:05:27;;;;;;;2.70;2.50;;;24.40;55.30;;;;;;5036662;28;20045;-50
2021/08/12 05:07:54;;;;;;;1.55;0.90;;;24.40;55.30;;;;;;5038156;28;20041;-51
2021/08/12 05:10:21;;;;;;;3.08;0.98;;;24.50;55.40;;;;;;5036036;28;20045;-52
2021/08/12 05:12:49;;;;;;;2.53;2.28;;;24.40;55.40;;;;;;5038512;28;20443;-48
2021/08/12 05:15:17;;;;;;;10.30;2.63;;;24.40;55.40;;;;;;5053114;28;20098;-54
2021/08/12 05:17:45;;;;;;;4.53;1.10;;;24.50;55.40;;;;;;5052863;28;20049;-51
2021/08/12 05:20:14;;;;;;;1.80;0.90;;;24.40;55.40;;;;;;5055258;28;20041;-51
2021/08/12 05:22:41;;;;;;;1.73;1.27;;;24.40;55.40;;;;;;5037305;28;20044;-47
2021/08/12 05:25:09;;;;;;;2.08;1.38;;;24.40;55.40;;;;;;5058256;28;20045;-46
2021/08/12 05:27:36;;;;;;;3.70;0.93;;;24.40;55.40;;;;;;5051167;28;20503;-47
2021/08/12 05:30:06;;;;;;;1.95;1.85;;;24.40;55.40;;;;;;5032506;28;20046;-48
2021/08/12 05:32:34;;;;;;;8.95;1.38;;;24.40;55.40;;;;;;5035803;28;20128;-44
2021/08/12 05:35:04;;;;;;;3.13;0.85;;;24.40;55.50;;;;;;5055117;28;20140;-49
2021/08/12 05:37:31;;;;;;;3.17;1.48;;;24.40;55.50;;;;;;5041189;28;20109;-44
2021/08/12 05:40:00;;;;;;;3.08;1.17;;;24.40;55.50;;;;;;5055606;28;20049;-45
2021/08/12 05:42:27;;;;;;;1.90;1.40;;;24.40;55.50;;;;;;5034024;28;20060;-49
2021/08/12 05:44:55;;;;;;;2.33;2.13;;;24.40;55.60;;;;;;5039796;28;20124;-51
2021/08/12 05:47:22;;;;;;;3.72;1.63;;;24.40;55.70;;;;;;5040253;28;20056;-47
2021/08/12 05:49:50;;;;;;;5.88;1.05;;;24.40;55.70;;;;;;5042759;28;20040;-47
2021/08/12 05:52:17;;;;;;;3.97;2.13;;;24.40;55.80;;;;;;5036905;28;20523;-50
2021/08/12 05:54:44;;;;;;;2.17;1.48;;;24.40;55.80;;;;;;5041736;28;20076;-47
2021/08/12 05:57:12;;;;;;;3.80;1.60;;;24.40;55.80;;;;;;5039236;28;20053;-45
2021/08/12 05:59:39;;;;;;;7.10;2.50;;;24.40;55.90;;;;;;5033703;28;20083;-45
2021/08/12 06:02:06;;;;;;;2.45;1.42;;;24.40;55.90;;;;;;5036760;28;20048;-46
2021/08/12 06:04:36;;;;;;;6.47;1.38;;;24.40;56.00;;;;;;5042361;28;20123;-45
2021/08/12 06:07:08;;;;;;;5.60;2.00;;;24.40;56.00;;;;;;5050832;28;20587;-44
2021/08/12 06:09:36;;;;;;;7.38;1.63;;;24.40;56.00;;;;;;5043496;28;20045;-44
2021/08/12 06:12:05;;;;;;;5.93;1.80;;;24.50;56.60;;;;;;5035542;28;20041;-54
2021/08/12 06:14:33;;;;;;;7.60;1.55;;;24.50;56.00;;;;;;5029304;28;20052;-53
2021/08/12 06:17:04;;;;;;;8.95;1.92;;;24.50;56.00;;;;;;5029710;28;20120;-52
2021/08/12 06:19:33;;;;;;;4.05;2.35;;;24.60;56.20;;;;;;5061262;28;20041;-52
2021/08/12 06:22:00;;;;;;;3.50;1.85;;;24.60;56.10;;;;;;5029109;28;20131;-53
2021/08/12 06:24:29;;;;;;;6.63;1.77;;;24.70;56.10;;;;;;5034451;28;20049;-53
2021/08/12 06:26:57;;;;;;;2.83;1.10;;;24.70;55.90;;;;;;5035684;28;20037;-51
2021/08/12 06:29:24;;;;;;;4.82;1.60;;;24.80;55.90;;;;;;5044653;28;20045;-51
2021/08/12 06:31:52;;;;;;;4.45;0.93;;;24.90;55.90;;;;;;5032296;28;20111;-53
2021/08/12 06:34:19;;;;;;;1.95;0.93;;;24.90;55.70;;;;;;5025620;28;20132;-51
2021/08/12 06:36:46;;;;;;;7.97;1.08;;;25.00;55.70;;;;;;5046562;28;20487;-53
2021/08/12 06:39:13;;;;;;;5.10;1.20;;;25.00;55.50;;;;;;5037425;28;20045;-50
2021/08/12 06:41:43;;;;;;;3.22;1.73;;;25.10;55.50;;;;;;5030373;28;20034;-48
2021/08/12 06:44:10;;;;;;;3.53;1.35;;;25.20;55.40;;;;;;5042342;28;20572;-50
2021/08/12 06:46:38;;;;;;;6.95;1.50;;;25.20;55.30;;;;;;5026384;28;20049;-49
2021/08/12 06:49:09;;;;;;;2.75;1.92;;;25.30;55.20;;;;;;5032815;28;20096;-52
2021/08/12 06:51:41;;;;;;;2.88;2.30;;;25.30;55.10;;;;;;5039180;28;20048;-50
2021/08/12 06:54:08;;;;;;;3.75;2.35;;;25.30;55.00;;;;;;5048550;28;20048;-51
2021/08/12 06:56:38;;;;;;;3.67;2.70;;;25.40;55.00;;;;;;5024541;28;20045;-50
2021/08/12 06:59:07;;;;;;;9.02;4.80;;;25.40;55.00;;;;;;5029451;28;20465;-53
2021/08/12 07:01:34;;;;;;;7.22;4.43;;;25.50;54.90;;;;;;5042069;28;20511;-53
2021/08/12 07:04:01;;;;;;;8.52;4.97;;;25.50;54.80;;;;;;5030455;28;20053;-49
2021/08/12 07:06:30;;;;;;;5.80;5.30;;;25.60;54.80;;;;;;5049856;28;20060;-52
2021/08/12 07:08:57;;;;;;;6.32;4.88;;;25.60;54.70;;;;;;5032186;28;20451;-51
2021/08/12 07:11:26;;;;;;;6.65;4.75;;;25.60;54.70;;;;;;5031077;28;20052;-51
2021/08/12 07:13:53;;;;;;;6.53;4.75;;;25.70;54.80;;;;;;5045956;28;20945;-53
2021/08/12 07:16:21;;;;;;;4.68;4.28;;;25.70;55.30;;;;;;5028929;28;20049;-50
2021/08/12 07:18:52;;;;;;;5.28;4.15;;;25.80;54.70;;;;;;5049808;28;20109;-50
2021/08/12 07:21:21;;;;;;;6.13;3.90;;;25.80;54.60;;;;;;5030355;28;20064;-53
2021/08/12 07:23:50;;;;;;;4.75;3.28;;;25.80;54.50;;;;;;5046556;28;20032;-53
2021/08/12 07:26:19;;;;;;;4.43;3.90;;;25.80;54.50;;;;;;5059725;28;20049;-53
2021/08/12 07:28:47;;;;;;;6.20;4.18;;;25.90;54.50;;;;;;5041035;28;20041;-55
2021/08/12 07:31:16;;;;;;;7.90;5.45;;;25.90;54.50;;;;;;5048260;28;20045;-53
2021/08/12 07:33:46;;;;;;;5.50;4.75;;;25.90;54.80;;;;;;5047477;28;20116;-48
2021/08/12 07:36:14;;;;;;;15.13;8.43;;;26.00;54.70;;;;;;5052923;28;20090;-49
2021/08/12 07:38:41;;;;;;;6.35;4.43;;;26.00;55.00;;;;;;5041514;28;20041;-45
2021/08/12 07:41:08;;;;;;;4.80;3.30;;;26.00;55.00;;;;;;5039847;28;20037;-51
2021/08/12 07:43:36;;;;;;;6.65;2.80;;;26.10;54.70;;;;;;5051397;28;20553;-51
2021/08/12 07:46:05;;;;;;;5.38;2.85;;;26.10;54.40;;;;;;5056460;28;20045;-48
2021/08/12 07:48:33;;;;;;;6.35;1.75;;;26.10;54.20;;;;;;5038778;28;20046;-46
2021/08/12 07:51:01;;;;;;;5.40;2.33;;;26.10;54.00;;;;;;5034226;28;20123;-48
2021/08/12 07:53:29;;;;;;;8.98;2.13;;;26.10;53.80;;;;;;5030105;28;20730;-49
2021/08/12 07:55:57;;;;;;;2.63;1.35;;;26.10;53.60;;;;;;5028638;28;20053;-49
2021/08/12 07:58:24;;;;;;;2.72;2.35;;;26.10;53.50;;;;;;5028067;28;20434;-47
2021/08/12 08:00:51;;;;;;;4.35;3.38;;;26.10;53.40;;;;;;5036578;28;20128;-47
2021/08/12 08:03:18;;;;;;;8.55;3.92;;;26.10;53.30;;;;;;5041254;28;20033;-47
2021/08/12 08:05:46;;;;;;;5.72;3.35;;;26.10;53.30;;;;;;5036812;28;20052;-47
2021/08/12 08:08:14;;;;;;;4.10;1.90;;;26.10;53.30;;;;;;5036014;28;20033;-49
2021/08/12 08:10:42;;;;;;;3.60;2.42;;;26.10;53.20;;;;;;5043659;28;20095;-53
2021/08/12 08:13:09;;;;;;;6.38;2.63;;;26.10;53.20;;;;;;5037225;28;20107;-68
2021/08/12 08:15:36;;;;;;;4.72;1.92;;;26.10;53.20;;;;;;5035921;28;20037;-59
2021/08/12 08:18:04;;;;;;;4.05;1.75;;;26.10;53.20;;;;;;5035262;28;20049;-57
2021/08/12 08:20:31;;;;;;;6.63;2.10;;;26.10;53.10;;;;;;5035699;28;20503;-58
2021/08/12 08:23:04;;;;;;;4.57;2.05;;;26.10;53.00;;;;;;5036923;28;20453;-58
2021/08/12 08:25:58;;;;;;;11.70;2.55;;;26.20;53.10;;;;;;5039166;28;20064;-61
2021/08/12 08:28:25;;;;;;;5.65;2.90;;;26.10;52.60;;;;;;5042585;28;20044;-61
2021/08/12 08:30:52;;;;;;;9.27;4.57;;;26.10;52.40;;;;;;5043786;28;20041;-60
2021/08/12 08:33:19;;;;;;;4.32;2.35;;;26.10;52.10;;;;;;5038173;28;20120;-60
2021/08/12 08:35:47;;;;;;;6.25;2.72;;;26.10;52.10;;;;;;5031470;28;20047;-60
2021/08/12 08:38:14;;;;;;;3.55;1.90;;;26.10;52.20;;;;;;5027563;28;20192;-60
2021/08/12 08:40:42;;;;;;;9.15;3.10;;;26.10;52.30;;;;;;5041898;28;20041;-61
2021/08/12 08:43:12;;;;;;;8.48;2.33;;;26.10;52.20;;;;;;5025968;28;20076;-60
2021/08/12 08:45:45;;;;;;;11.73;1.42;;;26.10;52.20;;;;;;5039899;28;20411;-58
2021/08/12 08:48:15;;;;;;;6.45;2.40;;;26.10;52.20;;;;;;5034758;28;20040;-61
2021/08/12 08:50:45;;;;;;;8.82;3.03;;;26.10;52.20;;;;;;5039340;28;20516;-59
2021/08/12 08:53:16;;;;;;;7.63;1.73;;;26.10;52.10;;;;;;5036752;28;20048;-60
2021/08/12 08:55:44;;;;;;;5.00;2.45;;;26.10;52.10;;;;;;5036927;28;20049;-61
2021/08/12 08:58:13;;;;;;;8.27;1.52;;;26.10;52.00;;;;;;5039673;28;20053;-61
2021/08/12 09:00:40;;;;;;;6.65;1.33;;;26.10;52.00;;;;;;5039215;28;20036;-61
2021/08/12 09:03:07;;;;;;;6.50;1.55;;;26.10;52.00;;;;;;5039357;28;20136;-61
2021/08/12 09:05:36;;;;;;;5.32;2.13;;;26.10;52.20;;;;;;5042133;28;20108;-62
2021/08/12 09:08:04;;;;;;;6.90;1.80;;;26.20;52.30;;;;;;5043414;28;20095;-61
2021/08/12 09:10:31;;;;;;;11.95;2.10;;;26.20;52.40;;;;;;5035599;28;20050;-61
2021/08/12 09:12:58;;;;;;;6.60;2.72;;;26.20;52.30;;;;;;5038462;28;20794;-60
2021/08/12 09:15:39;;;;;;;6.30;1.67;;;26.20;52.30;;;;;;5033456;28;20148;-62
2021/08/12 09:18:19;;;;;;;3.40;1.63;;;26.20;52.30;;;;;;5033507;28;20116;-62
2021/08/12 09:20:49;;;;;;;5.93;1.98;;;26.30;52.40;;;;;;5033487;28;20045;-61
2021/08/12 09:23:21;;;;;;;5.65;1.75;;;26.30;52.40;;;;;;5036123;28;20124;-61
2021/08/12 09:25:49;;;;;;;6.50;1.38;;;26.30;52.30;;;;;;5032149;28;20041;-62
2021/08/12 09:28:19;;;;;;;3.95;1.60;;;26.30;52.30;;;;;;5034931;28;20044;-62
2021/08/12 09:31:05;;;;;;;4.85;1.92;;;26.40;52.30;;;;;;5034375;28;20037;-61
2021/08/12 09:33:35;;;;;;;4.22;2.40;;;26.40;52.20;;;;;;5039523;28;20055;-66
2021/08/12 09:36:03;;;;;;;8.18;2.05;;;26.40;52.30;;;;;;5038799;28;20043;-66
2021/08/12 09:38:31;;;;;;;2.47;1.70;;;26.40;52.10;;;;;;5036950;28;20043;-65
2021/08/12 09:41:00;;;;;;;5.32;1.60;;;26.50;52.20;;;;;;5035728;28;20060;-65
2021/08/12 09:43:35;;;;;;;6.13;2.03;;;26.50;52.20;;;;;;5032332;28;20048;-67
2021/08/12 09:46:05;;;;;;;6.07;1.60;;;26.50;52.20;;;;;;5037885;28;20132;-67
2021/08/12 09:48:33;;;;;;;4.95;2.42;;;26.50;52.20;;;;;;5029732;28;20084;-66
2021/08/12 09:51:02;;;;;;;6.88;1.90;;;26.50;52.10;;;;;;5032551;28;20041;-65
2021/08/12 09:53:29;;;;;;;7.30;2.28;;;26.60;52.10;;;;;;5042662;28;20617;-65
2021/08/12 09:56:06;;;;;;;4.47;2.03;;;26.60;52.10;;;;;;5045118;28;20053;-65
2021/08/12 09:58:35;;;;;;;4.13;1.73;;;26.70;52.10;;;;;;5038288;28;20057;-65
2021/08/12 10:01:19;;;;;;;9.07;2.13;;;26.60;52.00;;;;;;5039759;28;20106;-62
2021/08/12 10:03:49;;;;;;;4.25;2.95;;;26.70;52.00;;;;;;5033871;28;20096;-64
2021/08/12 10:06:21;;;;;;;5.28;2.13;;;26.70;52.10;;;;;;5033214;28;20043;-62
2021/08/12 10:08:49;;;;;;;4.63;1.80;;;26.70;52.00;;;;;;5028533;28;20562;-62
2021/08/12 10:11:22;;;;;;;1.88;1.65;;;26.70;52.00;;;;;;5032044;28;20037;-62
2021/08/12 10:13:50;;;;;;;3.55;1.27;;;26.70;52.00;;;;;;5042535;28;20036;-63
2021/08/12 10:16:19;;;;;;;8.70;1.65;;;26.80;51.90;;;;;;5035014;28;20796;-67
2021/08/12 10:18:47;;;;;;;4.47;2.00;;;26.80;51.90;;;;;;5033031;28;20052;-67
2021/08/12 10:21:22;;;;;;;6.13;1.10;;;26.80;51.90;;;;;;5034966;28;20045;-66
2021/08/12 10:23:51;;;;;;;2.92;1.75;;;26.90;51.80;;;;;;5034880;28;20144;-66
2021/08/12 10:26:19;;;;;;;5.88;1.65;;;26.90;51.80;;;;;;5041557;28;20051;-64
2021/08/12 10:28:49;;;;;;;2.50;2.25;;;27.00;51.80;;;;;;5033829;28;20475;-64
2021/08/12 10:31:24;;;;;;;5.72;1.95;;;27.00;51.70;;;;;;5038316;28;20124;-63
2021/08/12 10:33:51;;;;;;;2.47;1.02;;;27.00;51.70;;;;;;5035860;28;20041;-64
2021/08/12 10:36:19;;;;;;;6.43;1.48;;;27.00;51.50;;;;;;5036166;28;20060;-64
2021/08/12 10:38:46;;;;;;;3.58;1.38;;;27.10;51.40;;;;;;5043629;28;20418;-64
2021/08/12 10:41:16;;;;;;;5.63;1.75;;;27.10;51.20;;;;;;5038923;28;20053;-64
2021/08/12 10:43:45;;;;;;;3.15;1.42;;;27.10;51.10;;;;;;5028903;28;20045;-64
2021/08/12 10:46:14;;;;;;;2.22;1.48;;;27.20;51.10;;;;;;5028029;28;20041;-64
2021/08/12 10:48:43;;;;;;;2.97;1.15;;;27.20;51.10;;;;;;5030219;28;20045;-64
2021/08/12 10:51:12;;;;;;;3.42;1.33;;;27.20;51.00;;;;;;5039007;28;20029;-65
2021/08/12 10:53:40;;;;;;;3.75;1.55;;;27.30;51.10;;;;;;5045206;28;20037;-64
2021/08/12 10:56:09;;;;;;;10.65;1.95;;;27.30;51.00;;;;;;5035017;28;20049;-66
2021/08/12 10:58:43;;;;;;;5.78;2.10;;;27.40;50.90;;;;;;5039331;28;20084;-63
2021/08/12 11:01:11;;;;;;;1.88;1.67;;;27.40;51.00;;;;;;5038697;28;20423;-61
2021/08/12 11:03:48;;;;;;;6.10;1.80;;;27.40;50.90;;;;;;5036884;28;20132;-60
2021/08/12 11:06:18;;;;;;;4.65;2.20;;;27.50;51.10;;;;;;5049361;28;20111;-60
2021/08/12 11:08:57;;;;;;;8.02;1.98;;;27.50;51.00;;;;;;5033322;28;20128;-59
2021/08/12 11:11:59;;;;;;;7.70;2.28;;;27.60;51.00;;;;;;5034917;28;20053;-59
2021/08/12 11:14:57;;;;;;;7.38;3.20;;;27.60;50.70;;;;;;5035324;28;20563;-57
2021/08/12 11:17:25;;;;;;;15.20;3.50;;;27.60;50.80;;;;;;5037906;28;20132;-59
2021/08/12 11:19:56;;;;;;;8.57;2.67;;;27.60;51.00;;;;;;5033717;28;20097;-58
2021/08/12 11:22:35;;;;;;;6.78;3.63;;;27.70;51.00;;;;;;5030848;28;20105;-58
2021/08/12 11:25:08;;;;;;;15.18;3.10;;;27.80;51.00;;;;;;5033265;28;20045;-56
2021/08/12 11:27:45;;;;;;;8.68;2.17;;;27.80;50.90;;;;;;5031196;28;20672;-57
2021/08/12 11:30:47;;;;;;;7.85;1.80;;;27.80;50.80;;;;;;5033542;28;20116;-58
2021/08/12 11:33:45;;;;;;;7.40;2.33;;;27.90;50.80;;;;;;5034055;28;20818;-59
2021/08/12 11:36:23;;;;;;;8.63;2.70;;;27.90;50.80;;;;;;5025229;28;20063;-59
2021/08/12 11:38:58;;;;;;;8.73;3.03;;;28.00;50.80;;;;;;5042856;28;20047;-59
2021/08/12 11:41:27;;;;;;;2.53;1.95;;;28.00;50.50;;;;;;5032192;28;20192;-58
2021/08/12 11:43:55;;;;;;;11.25;2.67;;;28.10;50.40;;;;;;5049264;28;20048;-58
2021/08/12 11:46:23;;;;;;;9.02;2.20;;;28.10;50.40;;;;;;5032857;28;20044;-55
2021/08/12 11:48:51;;;;;;;6.95;3.08;;;28.10;50.10;;;;;;5035280;28;20029;-58
2021/08/12 11:51:20;;;;;;;9.30;2.40;;;28.20;50.30;;;;;;5032634;28;20087;-59
2021/08/12 11:53:51;;;;;;;4.22;2.35;;;28.30;50.10;;;;;;5033639;28;20041;-59
2021/08/12 11:56:24;;;;;;;7.88;2.30;;;28.30;49.90;;;;;;5033853;28;20141;-58
2021/08/12 11:58:53;;;;;;;9.13;1.88;;;28.40;50.00;;;;;;5037643;28;20065;-59
2021/08/12 12:01:22;;;;;;;3.33;1.85;;;28.40;49.90;;;;;;5046831;28;20485;-58
2021/08/12 12:03:56;;;;;;;3.45;2.00;;;28.50;49.70;;;;;;5031541;28;20136;-58
2021/08/12 12:06:48;;;;;;;9.57;2.33;;;28.50;49.50;;;;;;5037370;28;20463;-59
2021/08/12 12:09:26;;;;;;;6.50;2.08;;;28.60;49.30;;;;;;5031124;28;20046;-58
2021/08/12 12:11:58;;;;;;;4.85;2.28;;;28.60;49.20;;;;;;5039410;28;20042;-60
2021/08/12 12:14:28;;;;;;;3.33;2.63;;;28.70;49.10;;;;;;5037892;28;20132;-58
2021/08/12 12:17:16;;;;;;;8.88;1.95;;;28.70;48.90;;;;;;5038044;28;20119;-60
2021/08/12 12:20:07;;;;;;;3.78;1.92;;;28.80;48.80;;;;;;5037440;28;20411;-60
2021/08/12 12:22:37;;;;;;;3.92;2.17;;;28.80;48.60;;;;;;5038543;28;20235;-62
2021/08/12 12:25:07;;;;;;;3.08;1.92;;;28.80;48.50;;;;;;5042270;28;20045;-60
2021/08/12 12:27:35;;;;;;;5.72;2.78;;;28.90;48.40;;;;;;5037583;28;20071;-60
2021/08/12 12:30:08;;;;;;;7.43;1.85;;;28.90;48.50;;;;;;5072236;22;20040;-61
2021/08/12 12:32:36;;;;;;;5.80;1.75;;;29.00;48.60;;;;;;4989930;28;20030;-61
2021/08/12 12:35:05;;;;;;;4.80;3.60;;;29.10;48.50;;;;;;5005342;28;20046;-60
2021/08/12 12:37:35;;;;;;;3.50;2.33;;;29.10;48.30;;;;;;5006161;28;20054;-60
2021/08/12 12:40:05;;;;;;;7.63;2.28;;;29.10;48.30;;;;;;5008744;28;20721;-60
2021/08/12 12:42:34;;;;;;;4.68;2.38;;;29.20;48.10;;;;;;5007684;28;20214;-61
2021/08/12 12:45:03;;;;;;;5.43;4.93;;;29.20;48.00;;;;;;5004987;28;20515;-61
2021/08/12 12:47:31;;;;;;;9.45;6.20;;;29.30;48.00;;;;;;5008617;28;20038;-60
2021/08/12 12:50:06;;;;;;;10.93;8.40;;;29.30;47.90;;;;;;5007611;28;20069;-60
2021/08/12 12:52:35;;;;;;;8.88;5.82;;;29.40;48.40;;;;;;4989164;28;20056;-60
2021/08/12 12:55:03;;;;;;;5.75;4.90;;;29.40;47.80;;;;;;5008967;28;20060;-59
2021/08/12 12:57:31;;;;;;;4.35;3.58;;;29.50;47.70;;;;;;5007156;28;20069;-61
2021/08/12 12:59:58;;;;;;;4.95;3.60;;;29.50;47.50;;;;;;5007239;28;20050;-60